Time;durP1;ratioP1;P1;durP2;ratioP2;P2;SDS_P1;SDS_P2;PMS_P1;PMS_P2;Temp;Humidity;BMP_temperature;BMP_pressure;BME280_temperature;BME280_humidity;BME280_pressure;Samples;Min_cycle;Max_cycle;Signal;HPM_P1;HPM_P2
2022/03/13 00:02:07;;;;;;;0.00;0.00;;;6.60;99.90;;;;;;5035119;28;20430;-65
2022/03/13 00:04:37;;;;;;;0.00;0.00;;;7.20;99.90;;;;;;5026030;28;20072;-68
2022/03/13 00:07:08;;;;;;;0.00;0.00;;;6.60;99.90;;;;;;5022115;28;20807;-67
2022/03/13 00:09:34;;;;;;;0.00;0.00;;;6.70;99.90;;;;;;5022646;28;20061;-67
2022/03/13 00:12:04;;;;;;;0.00;0.00;;;6.50;99.90;;;;;;5022807;28;20037;-67
2022/03/13 00:14:31;;;;;;;0.10;0.10;;;6.50;99.90;;;;;;5023027;28;20049;-68
2022/03/13 00:16:57;;;;;;;0.00;0.00;;;6.70;99.90;;;;;;5024555;28;20041;-67
2022/03/13 00:19:24;;;;;;;0.00;0.00;;;6.40;99.90;;;;;;5025769;28;20073;-67
2022/03/13 00:21:54;;;;;;;1.10;0.63;;;6.40;99.90;;;;;;5025846;28;20448;-67
2022/03/13 00:24:22;;;;;;;0.85;0.55;;;6.30;99.90;;;;;;5041543;28;20045;-68
2022/03/13 00:26:52;;;;;;;0.08;0.08;;;6.30;99.90;;;;;;5025375;28;20053;-68
2022/03/13 00:29:18;;;;;;;0.00;0.00;;;6.60;99.90;;;;;;5024963;28;20128;-67
2022/03/13 00:31:44;;;;;;;0.00;0.00;;;6.20;99.90;;;;;;5025488;28;20041;-67
2022/03/13 00:34:10;;;;;;;0.00;0.00;;;6.50;99.90;;;;;;5025124;28;20034;-67
2022/03/13 00:36:36;;;;;;;0.00;0.00;;;6.30;99.90;;;;;;5024346;28;20107;-68
2022/03/13 00:39:03;;;;;;;0.00;0.00;;;6.10;99.90;;;;;;5024317;28;20411;-68
2022/03/13 00:41:29;;;;;;;0.00;0.00;;;6.00;99.90;;;;;;5025808;28;20152;-67
2022/03/13 00:43:55;;;;;;;0.00;0.00;;;6.00;99.90;;;;;;5025077;28;20103;-68
2022/03/13 00:46:21;;;;;;;0.00;0.00;;;5.90;99.90;;;;;;5025805;28;20049;-67
2022/03/13 00:48:47;;;;;;;0.00;0.00;;;5.90;99.90;;;;;;5025021;28;20209;-67
2022/03/13 00:51:12;;;;;;;0.00;0.00;;;5.90;99.90;;;;;;5024885;28;20045;-68
2022/03/13 00:53:43;;;;;;;0.10;0.10;;;5.80;99.90;;;;;;5025146;28;20488;-67
2022/03/13 00:56:10;;;;;;;0.00;0.00;;;5.90;99.90;;;;;;5023871;28;20046;-67
2022/03/13 00:58:38;;;;;;;0.05;0.05;;;5.90;99.90;;;;;;5025016;28;20041;-67
2022/03/13 01:01:05;;;;;;;0.00;0.00;;;5.90;99.90;;;;;;5027374;28;20081;-65
2022/03/13 01:03:47;;;;;;;0.30;0.28;;;6.90;99.90;;;;;;5034715;28;20041;-67
2022/03/13 01:06:13;;;;;;;0.00;0.00;;;6.00;99.90;;;;;;5043742;28;20067;-67
2022/03/13 01:08:40;;;;;;;0.00;0.00;;;5.90;99.90;;;;;;5044822;28;20037;-66
2022/03/13 01:11:06;;;;;;;0.00;0.00;;;7.20;99.90;;;;;;5044194;28;20575;-68
2022/03/13 01:13:32;;;;;;;0.00;0.00;;;5.80;99.90;;;;;;5045410;28;20135;-67
2022/03/13 01:16:23;;;;;;;0.00;0.00;;;5.80;99.90;;;;;;5044510;28;20118;-68
2022/03/13 01:18:52;;;;;;;0.00;0.00;;;5.70;99.90;;;;;;5036158;28;20049;-67
2022/03/13 01:21:18;;;;;;;0.00;0.00;;;5.80;99.90;;;;;;5026542;28;20057;-66
2022/03/13 01:24:04;;;;;;;2.67;1.95;;;5.60;99.90;;;;;;5043902;28;20055;-67
2022/03/13 01:26:34;;;;;;;0.00;0.00;;;5.60;99.90;;;;;;5044191;28;20037;-66
2022/03/13 01:29:01;;;;;;;0.00;0.00;;;5.60;99.90;;;;;;5044779;28;20711;-67
2022/03/13 01:31:32;;;;;;;0.00;0.00;;;5.70;99.90;;;;;;5044532;28;20037;-67
2022/03/13 01:33:58;;;;;;;0.08;0.08;;;5.70;99.90;;;;;;5043242;28;20052;-67
2022/03/13 01:36:24;;;;;;;0.00;0.00;;;5.60;99.90;;;;;;5044667;28;20045;-67
2022/03/13 01:38:55;;;;;;;0.00;0.00;;;5.60;99.90;;;;;;5043826;28;20048;-67
2022/03/13 01:41:23;;;;;;;0.00;0.00;;;5.60;99.90;;;;;;5044713;28;20412;-67
2022/03/13 01:43:49;;;;;;;0.00;0.00;;;6.00;99.90;;;;;;5026396;28;20055;-67
2022/03/13 01:46:15;;;;;;;0.00;0.00;;;5.60;99.90;;;;;;5043908;28;20041;-66
2022/03/13 01:48:58;;;;;;;0.00;0.00;;;5.50;99.90;;;;;;5026085;28;20260;-66
2022/03/13 01:51:25;;;;;;;0.43;0.30;;;5.90;99.90;;;;;;5044010;28;20037;-67
2022/03/13 01:53:54;;;;;;;0.00;0.00;;;5.50;99.90;;;;;;5026411;28;20392;-67
2022/03/13 01:56:21;;;;;;;0.00;0.00;;;5.50;99.90;;;;;;5044629;28;20045;-67
2022/03/13 01:58:53;;;;;;;0.00;0.00;;;5.40;99.90;;;;;;5043300;28;20028;-67
2022/03/13 02:01:20;;;;;;;0.00;0.00;;;5.40;99.90;;;;;;5046785;28;20052;-67
2022/03/13 02:03:46;;;;;;;0.00;0.00;;;5.50;99.90;;;;;;5052378;28;20040;-67
2022/03/13 02:06:12;;;;;;;0.00;0.00;;;5.50;99.90;;;;;;5043191;28;20089;-67
2022/03/13 02:08:38;;;;;;;0.10;0.10;;;5.70;99.90;;;;;;5043500;28;20048;-59
2022/03/13 02:11:05;;;;;;;0.10;0.10;;;6.40;99.90;;;;;;5043960;28;20037;-67
2022/03/13 02:13:32;;;;;;;0.00;0.00;;;5.40;99.90;;;;;;5026493;28;20049;-67
2022/03/13 02:15:57;;;;;;;0.80;0.38;;;5.40;99.90;;;;;;5024852;28;20076;-67
2022/03/13 02:18:23;;;;;;;0.00;0.00;;;5.40;99.90;;;;;;5044114;28;20079;-67
2022/03/13 02:20:49;;;;;;;0.20;0.20;;;6.10;99.90;;;;;;5042747;28;20045;-67
2022/03/13 02:23:15;;;;;;;0.20;0.20;;;5.90;99.90;;;;;;5043659;28;20083;-67
2022/03/13 02:25:41;;;;;;;0.00;0.00;;;5.40;99.90;;;;;;5042889;28;20045;-61
2022/03/13 02:28:07;;;;;;;0.20;0.20;;;5.40;99.90;;;;;;5026027;28;20041;-68
2022/03/13 02:30:34;;;;;;;0.10;0.10;;;5.40;99.90;;;;;;5044063;28;20041;-66
2022/03/13 02:33:00;;;;;;;0.05;0.05;;;5.30;99.90;;;;;;5042785;28;20049;-69
2022/03/13 02:35:29;;;;;;;1.27;0.20;;;5.30;99.90;;;;;;5043101;28;20037;-67
2022/03/13 02:37:55;;;;;;;0.15;0.08;;;5.30;99.90;;;;;;5043006;28;20053;-67
2022/03/13 02:40:23;;;;;;;0.35;0.32;;;5.30;99.90;;;;;;5043219;28;20123;-66
2022/03/13 02:42:50;;;;;;;0.00;0.00;;;5.30;99.90;;;;;;5042482;28;20087;-67
2022/03/13 02:45:29;;;;;;;0.00;0.00;;;5.20;99.90;;;;;;5043378;28;20056;-67
2022/03/13 02:47:55;;;;;;;1.65;0.40;;;5.30;99.90;;;;;;5025317;28;20892;-67
2022/03/13 02:50:20;;;;;;;0.00;0.00;;;5.20;99.90;;;;;;5024559;28;20044;-67
2022/03/13 02:52:46;;;;;;;0.00;0.00;;;5.20;99.90;;;;;;5042854;28;20041;-67
2022/03/13 02:55:12;;;;;;;0.00;0.00;;;5.20;99.90;;;;;;5043008;28;20033;-67
2022/03/13 02:57:39;;;;;;;0.00;0.00;;;5.20;99.90;;;;;;5042744;28;20045;-67
2022/03/13 03:00:08;;;;;;;0.10;0.10;;;5.20;99.90;;;;;;5042832;28;20048;-67
2022/03/13 03:02:34;;;;;;;0.00;0.00;;;5.20;99.90;;;;;;5035021;28;20122;-67
2022/03/13 03:05:03;;;;;;;0.00;0.00;;;5.10;99.90;;;;;;5043268;28;20492;-67
2022/03/13 03:07:29;;;;;;;0.00;0.00;;;5.00;99.90;;;;;;5042894;28;20048;-65
2022/03/13 03:09:55;;;;;;;0.00;0.00;;;5.40;99.90;;;;;;5042800;28;20461;-67
2022/03/13 03:12:21;;;;;;;0.00;0.00;;;5.10;99.90;;;;;;5042701;28;20403;-67
2022/03/13 03:14:46;;;;;;;0.00;0.00;;;5.00;99.90;;;;;;5042012;28;20446;-67
2022/03/13 03:17:13;;;;;;;0.00;0.00;;;5.00;99.90;;;;;;5042969;28;20041;-67
2022/03/13 03:19:39;;;;;;;0.00;0.00;;;5.00;99.90;;;;;;5041891;28;20055;-65
2022/03/13 03:22:04;;;;;;;0.00;0.00;;;5.20;99.90;;;;;;5042233;28;20384;-67
2022/03/13 03:24:30;;;;;;;0.00;0.00;;;4.90;99.90;;;;;;5025002;28;20067;-67
2022/03/13 03:26:56;;;;;;;0.10;0.10;;;4.90;99.90;;;;;;5042638;28;20048;-67
2022/03/13 03:29:25;;;;;;;0.00;0.00;;;4.80;99.90;;;;;;5042794;28;20106;-67
2022/03/13 03:31:51;;;;;;;0.00;0.00;;;5.50;99.90;;;;;;5041730;28;20044;-65
2022/03/13 03:34:20;;;;;;;0.40;0.40;;;4.80;99.90;;;;;;5041918;28;20041;-66
2022/03/13 03:36:54;;;;;;;0.00;0.00;;;4.80;99.90;;;;;;5042397;28;20572;-66
2022/03/13 03:39:21;;;;;;;0.43;0.43;;;5.10;99.90;;;;;;5024584;28;20457;-66
2022/03/13 03:41:48;;;;;;;0.05;0.05;;;4.80;99.90;;;;;;5041199;28;20091;-66
2022/03/13 03:44:14;;;;;;;0.03;0.03;;;4.80;99.90;;;;;;5042518;28;20051;-67
2022/03/13 03:46:42;;;;;;;0.10;0.10;;;5.20;99.90;;;;;;5041668;28;20533;-67
2022/03/13 03:49:08;;;;;;;0.00;0.00;;;4.80;99.90;;;;;;5041906;28;20041;-68
2022/03/13 03:51:35;;;;;;;0.00;0.00;;;4.70;99.90;;;;;;5046868;28;20041;-67
2022/03/13 03:54:02;;;;;;;0.00;0.00;;;4.70;99.90;;;;;;5046404;28;20049;-67
2022/03/13 03:56:28;;;;;;;0.00;0.00;;;4.70;99.90;;;;;;5046456;28;20041;-66
2022/03/13 03:58:54;;;;;;;0.00;0.00;;;4.10;99.90;;;;;;5045818;28;20354;-68
2022/03/13 04:01:20;;;;;;;0.00;0.00;;;4.80;99.90;;;;;;5048947;28;20060;-66
2022/03/13 04:03:46;;;;;;;0.00;0.00;;;4.80;99.90;;;;;;5040286;28;20045;-67
2022/03/13 04:06:12;;;;;;;0.00;0.00;;;4.80;99.90;;;;;;5046185;28;20061;-67
2022/03/13 04:08:38;;;;;;;0.00;0.00;;;4.80;99.90;;;;;;5046162;28;20049;-67
2022/03/13 04:11:04;;;;;;;0.00;0.00;;;4.80;99.90;;;;;;5046248;28;20537;-67
2022/03/13 04:13:30;;;;;;;0.00;0.00;;;4.80;99.90;;;;;;5046505;28;20045;-67
2022/03/13 04:15:56;;;;;;;0.00;0.00;;;4.80;99.90;;;;;;5045812;28;20721;-68
2022/03/13 04:18:22;;;;;;;0.00;0.00;;;4.80;99.90;;;;;;5046113;28;20479;-67
2022/03/13 04:20:48;;;;;;;0.00;0.00;;;4.70;99.90;;;;;;5044801;28;20068;-66
2022/03/13 04:23:14;;;;;;;0.00;0.00;;;4.70;99.90;;;;;;5045624;28;20518;-67
2022/03/13 04:25:40;;;;;;;0.00;0.00;;;3.90;99.90;;;;;;5045949;28;20122;-66
2022/03/13 04:28:09;;;;;;;0.00;0.00;;;4.60;99.90;;;;;;5045687;28;20037;-67
2022/03/13 04:30:39;;;;;;;0.00;0.00;;;4.60;99.90;;;;;;5045836;28;20458;-60
2022/03/13 04:33:06;;;;;;;0.00;0.00;;;4.50;99.90;;;;;;5045958;28;20174;-68
2022/03/13 04:35:33;;;;;;;0.00;0.00;;;4.50;99.90;;;;;;5045087;28;20044;-66
2022/03/13 04:37:59;;;;;;;0.00;0.00;;;4.50;99.90;;;;;;5045469;28;20045;-67
2022/03/13 04:40:25;;;;;;;0.00;0.00;;;4.80;99.90;;;;;;5045766;28;20124;-67
2022/03/13 04:42:50;;;;;;;0.00;0.00;;;4.50;99.90;;;;;;5045317;28;20121;-68
2022/03/13 04:45:18;;;;;;;0.00;0.00;;;4.50;99.90;;;;;;5044994;28;20067;-67
2022/03/13 04:47:44;;;;;;;0.00;0.00;;;4.40;99.90;;;;;;5045204;28;20087;-67
2022/03/13 04:50:10;;;;;;;0.00;0.00;;;4.40;99.90;;;;;;5027091;28;20049;-67
2022/03/13 04:52:36;;;;;;;0.10;0.10;;;4.50;99.90;;;;;;5044001;28;20044;-67
2022/03/13 04:55:03;;;;;;;0.00;0.00;;;4.40;99.90;;;;;;5044986;28;20053;-67
2022/03/13 04:57:28;;;;;;;0.10;0.10;;;4.30;99.90;;;;;;5028019;28;20045;-67
2022/03/13 04:59:54;;;;;;;0.00;0.00;;;4.30;99.90;;;;;;5026904;28;20056;-67
2022/03/13 05:02:20;;;;;;;0.00;0.00;;;4.20;99.90;;;;;;5030949;28;20159;-67
2022/03/13 05:04:47;;;;;;;0.00;0.00;;;4.80;99.90;;;;;;5043641;28;20518;-67
2022/03/13 05:07:13;;;;;;;0.00;0.00;;;4.20;99.90;;;;;;5045425;28;20136;-67
2022/03/13 05:09:39;;;;;;;0.00;0.00;;;5.30;99.90;;;;;;5044804;28;20037;-66
2022/03/13 05:12:07;;;;;;;0.00;0.00;;;4.20;99.90;;;;;;5044379;28;20059;-67
2022/03/13 05:14:34;;;;;;;0.00;0.00;;;4.10;99.90;;;;;;5027250;28;20059;-67
2022/03/13 05:16:59;;;;;;;0.00;0.00;;;4.00;99.90;;;;;;5044950;28;20103;-68
2022/03/13 05:19:25;;;;;;;0.00;0.00;;;4.00;99.90;;;;;;5043755;28;20072;-67
2022/03/13 05:21:51;;;;;;;0.00;0.00;;;4.00;99.90;;;;;;5010467;28;20044;-66
2022/03/13 05:24:16;;;;;;;0.00;0.00;;;3.90;99.90;;;;;;5010612;28;20523;-67
2022/03/13 05:26:42;;;;;;;0.00;0.00;;;4.00;99.90;;;;;;5044431;28;20586;-67
2022/03/13 05:29:09;;;;;;;0.00;0.00;;;4.00;99.90;;;;;;5044233;28;20040;-66
2022/03/13 05:31:34;;;;;;;0.00;0.00;;;4.00;99.90;;;;;;5026630;28;20053;-60
2022/03/13 05:34:00;;;;;;;0.00;0.00;;;3.50;99.90;;;;;;5043910;28;20039;-65
2022/03/13 05:36:26;;;;;;;0.00;0.00;;;3.90;99.90;;;;;;5043961;28;20078;-68
2022/03/13 05:38:51;;;;;;;0.00;0.00;;;3.90;99.90;;;;;;5044186;28;20048;-67
2022/03/13 05:41:18;;;;;;;0.00;0.00;;;3.80;99.90;;;;;;5044379;28;20452;-66
2022/03/13 05:43:44;;;;;;;0.00;0.00;;;3.80;99.90;;;;;;5026086;28;20128;-66
2022/03/13 05:46:10;;;;;;;0.00;0.00;;;3.70;99.90;;;;;;5044106;28;20120;-66
2022/03/13 05:48:36;;;;;;;0.00;0.00;;;3.70;99.90;;;;;;5043611;28;20052;-66
2022/03/13 05:51:02;;;;;;;0.00;0.00;;;3.70;99.90;;;;;;5026534;28;20053;-67
2022/03/13 05:53:27;;;;;;;0.00;0.00;;;3.80;99.90;;;;;;5043979;28;20052;-67
2022/03/13 05:55:53;;;;;;;0.00;0.00;;;3.70;99.90;;;;;;5043758;28;20842;-66
2022/03/13 05:58:19;;;;;;;0.00;0.00;;;4.00;99.90;;;;;;5044133;28;20049;-67
2022/03/13 06:01:00;;;;;;;0.00;0.00;;;3.70;99.90;;;;;;5043141;28;20439;-66
2022/03/13 06:03:26;;;;;;;0.00;0.00;;;3.70;99.90;;;;;;5053634;28;20052;-66
2022/03/13 06:05:52;;;;;;;0.00;0.00;;;3.70;99.90;;;;;;5043220;28;20060;-65
2022/03/13 06:08:18;;;;;;;0.00;0.00;;;4.80;99.90;;;;;;5044169;28;20095;-66
2022/03/13 06:10:43;;;;;;;0.00;0.00;;;3.70;99.90;;;;;;5025231;28;20506;-65
2022/03/13 06:13:09;;;;;;;0.00;0.00;;;4.50;99.90;;;;;;5043449;28;20850;-66
2022/03/13 06:15:35;;;;;;;0.00;0.00;;;3.70;99.90;;;;;;5043850;28;20041;-66
2022/03/13 06:18:02;;;;;;;1.23;0.08;;;3.70;99.90;;;;;;5043480;28;20036;-65
2022/03/13 06:20:28;;;;;;;0.00;0.00;;;3.80;99.90;;;;;;5043120;28;20080;-66
2022/03/13 06:22:53;;;;;;;0.00;0.00;;;3.80;99.90;;;;;;5025384;28;20092;-65
2022/03/13 06:25:19;;;;;;;0.00;0.00;;;3.80;99.90;;;;;;5043689;28;20077;-66
2022/03/13 06:27:45;;;;;;;0.10;0.10;;;3.90;99.90;;;;;;5042456;28;20047;-66
2022/03/13 06:30:14;;;;;;;0.00;0.00;;;3.90;99.90;;;;;;5043911;28;20102;-66
2022/03/13 06:32:46;;;;;;;0.00;0.00;;;3.90;99.90;;;;;;5043119;28;20072;-65
2022/03/13 06:35:14;;;;;;;0.00;0.00;;;4.00;99.90;;;;;;5042308;28;20124;-65
2022/03/13 06:37:41;;;;;;;0.00;0.00;;;4.00;99.90;;;;;;5043162;28;20037;-66
2022/03/13 06:40:09;;;;;;;0.00;0.00;;;4.10;99.90;;;;;;5025603;28;20049;-67
2022/03/13 06:42:34;;;;;;;0.00;0.00;;;4.10;99.90;;;;;;5042726;28;20041;-66
2022/03/13 06:45:00;;;;;;;0.00;0.00;;;4.20;99.90;;;;;;5043550;28;20558;-66
2022/03/13 06:47:26;;;;;;;0.00;0.00;;;4.20;99.90;;;;;;5025281;28;20083;-66
2022/03/13 06:49:52;;;;;;;0.00;0.00;;;4.30;99.90;;;;;;5024441;28;20036;-66
2022/03/13 06:52:18;;;;;;;0.00;0.00;;;4.80;99.90;;;;;;5042712;28;20033;-66
2022/03/13 06:54:43;;;;;;;0.00;0.00;;;4.40;99.90;;;;;;5042572;28;20487;-66
2022/03/13 06:57:10;;;;;;;0.00;0.00;;;4.50;99.90;;;;;;5043371;28;20072;-65
2022/03/13 06:59:35;;;;;;;0.00;0.00;;;4.60;99.90;;;;;;5024747;28;20496;-66
2022/03/13 07:02:01;;;;;;;0.22;0.22;;;4.60;99.90;;;;;;5030356;28;20131;-66
2022/03/13 07:04:27;;;;;;;0.17;0.17;;;4.70;99.90;;;;;;5030301;28;20045;-66
2022/03/13 07:06:52;;;;;;;0.00;0.00;;;4.80;99.90;;;;;;5025125;28;20124;-67
2022/03/13 07:09:18;;;;;;;0.00;0.00;;;4.80;99.90;;;;;;5042251;28;20141;-66
2022/03/13 07:11:47;;;;;;;0.08;0.08;;;4.90;99.90;;;;;;5042655;28;20611;-66
2022/03/13 07:14:13;;;;;;;0.00;0.00;;;5.00;99.90;;;;;;5042927;28;20045;-67
2022/03/13 07:16:39;;;;;;;0.00;0.00;;;5.00;99.90;;;;;;5024513;28;20037;-65
2022/03/13 07:19:05;;;;;;;0.00;0.00;;;5.10;99.90;;;;;;5042211;28;20079;-61
2022/03/13 07:21:30;;;;;;;0.80;0.80;;;6.20;99.90;;;;;;5043302;28;20041;-69
2022/03/13 07:23:56;;;;;;;0.10;0.10;;;5.30;99.90;;;;;;5040969;28;20048;-67
2022/03/13 07:26:21;;;;;;;0.00;0.00;;;5.40;99.90;;;;;;5024472;28;20068;-68
2022/03/13 07:28:47;;;;;;;0.08;0.08;;;5.40;99.90;;;;;;5042434;28;20633;-68
2022/03/13 07:31:13;;;;;;;0.00;0.00;;;5.50;99.90;;;;;;5042670;28;20632;-66
2022/03/13 07:33:39;;;;;;;0.10;0.10;;;5.60;99.90;;;;;;5023370;28;20082;-67
2022/03/13 07:36:05;;;;;;;0.47;0.32;;;5.60;99.90;;;;;;5042645;28;20033;-66
2022/03/13 07:38:30;;;;;;;0.00;0.00;;;5.70;99.90;;;;;;5043217;28;20087;-66
2022/03/13 07:40:56;;;;;;;0.00;0.00;;;5.80;99.90;;;;;;5007684;28;20561;-67
2022/03/13 07:43:22;;;;;;;0.00;0.00;;;5.80;99.90;;;;;;5042310;28;20654;-67
2022/03/13 07:45:49;;;;;;;0.10;0.10;;;5.80;99.90;;;;;;5042062;28;20660;-66
2022/03/13 07:48:15;;;;;;;0.00;0.00;;;5.90;99.90;;;;;;5024136;28;20040;-66
2022/03/13 07:50:41;;;;;;;0.00;0.00;;;5.90;99.90;;;;;;5023672;28;20045;-65
2022/03/13 07:53:06;;;;;;;0.45;0.45;;;6.00;99.90;;;;;;5042178;28;20063;-67
2022/03/13 07:55:32;;;;;;;0.17;0.17;;;6.30;99.90;;;;;;5024769;28;20391;-67
2022/03/13 07:57:58;;;;;;;0.13;0.10;;;6.10;99.90;;;;;;5042047;28;20503;-68
2022/03/13 08:00:24;;;;;;;0.00;0.00;;;6.30;99.90;;;;;;5041979;28;20033;-68
2022/03/13 08:02:52;;;;;;;0.10;0.10;;;7.10;99.90;;;;;;5050533;28;20048;-67
2022/03/13 08:05:19;;;;;;;0.00;0.00;;;6.40;99.90;;;;;;5050280;28;20045;-67
2022/03/13 08:07:45;;;;;;;0.00;0.00;;;7.00;99.90;;;;;;5023590;28;20667;-67
2022/03/13 08:10:12;;;;;;;0.00;0.00;;;6.70;99.90;;;;;;5043029;28;20045;-67
2022/03/13 08:12:38;;;;;;;1.40;0.20;;;6.70;99.90;;;;;;5062183;28;20127;-68
2022/03/13 08:15:08;;;;;;;0.00;0.00;;;6.80;99.90;;;;;;5062230;28;20060;-67
2022/03/13 08:17:34;;;;;;;0.00;0.00;;;6.80;99.90;;;;;;5062374;28;20045;-67
2022/03/13 08:20:00;;;;;;;0.10;0.10;;;7.10;99.90;;;;;;5043587;28;20041;-68
2022/03/13 08:22:26;;;;;;;0.03;0.03;;;7.10;99.90;;;;;;5044451;28;20439;-68
2022/03/13 08:24:52;;;;;;;0.00;0.00;;;7.30;99.90;;;;;;5061209;28;20044;-68
2022/03/13 08:27:18;;;;;;;0.00;0.00;;;7.20;99.90;;;;;;5062430;28;20041;-68
2022/03/13 08:29:44;;;;;;;0.00;0.00;;;7.30;99.90;;;;;;5058380;28;20049;-68
2022/03/13 08:32:10;;;;;;;0.15;0.15;;;7.40;99.90;;;;;;5059394;28;20050;-68
2022/03/13 08:34:38;;;;;;;0.00;0.00;;;7.60;99.90;;;;;;5042664;28;20052;-67
2022/03/13 08:37:04;;;;;;;0.00;0.00;;;7.50;99.90;;;;;;5055877;28;20376;-67
2022/03/13 08:39:30;;;;;;;0.05;0.05;;;7.60;99.90;;;;;;5045865;28;20533;-67
2022/03/13 08:41:56;;;;;;;0.10;0.10;;;7.80;99.90;;;;;;5062196;28;20076;-69
2022/03/13 08:44:22;;;;;;;0.00;0.00;;;7.80;99.90;;;;;;5045073;28;20780;-66
2022/03/13 08:46:47;;;;;;;0.00;0.00;;;7.80;99.90;;;;;;5026668;28;20063;-67
2022/03/13 08:49:15;;;;;;;0.00;0.00;;;8.00;99.90;;;;;;5044504;28;20053;-66
2022/03/13 08:51:41;;;;;;;2.80;1.45;;;8.00;99.90;;;;;;5044247;28;20045;-63
2022/03/13 08:54:07;;;;;;;0.10;0.10;;;8.40;99.90;;;;;;5010847;28;20679;-68
2022/03/13 08:56:33;;;;;;;0.05;0.05;;;8.60;99.90;;;;;;5055287;28;20119;-67
2022/03/13 08:58:59;;;;;;;0.00;0.00;;;8.60;99.90;;;;;;5064773;28;20045;-66
2022/03/13 09:01:25;;;;;;;0.00;0.00;;;8.80;99.90;;;;;;5060808;28;20494;-69
2022/03/13 09:03:51;;;;;;;0.00;0.00;;;9.00;99.90;;;;;;5060209;28;20056;-68
2022/03/13 09:06:17;;;;;;;0.00;0.00;;;9.30;99.90;;;;;;5065018;28;20110;-67
2022/03/13 09:08:43;;;;;;;0.60;0.38;;;9.40;99.90;;;;;;5041705;28;20509;-67
2022/03/13 09:11:09;;;;;;;0.22;0.22;;;9.30;99.90;;;;;;5062920;28;20815;-68
2022/03/13 09:13:36;;;;;;;0.10;0.05;;;9.50;99.90;;;;;;5046707;28;20045;-65
2022/03/13 09:16:02;;;;;;;0.00;0.00;;;9.50;99.90;;;;;;5065019;28;20076;-67
2022/03/13 09:18:30;;;;;;;0.93;0.22;;;9.60;99.90;;;;;;5045703;28;20491;-69
2022/03/13 09:20:56;;;;;;;0.13;0.13;;;9.80;99.90;;;;;;5064265;28;20040;-67
2022/03/13 09:23:23;;;;;;;0.00;0.00;;;10.00;99.90;;;;;;5064549;28;20075;-68
2022/03/13 09:25:50;;;;;;;0.10;0.10;;;10.50;99.90;;;;;;5045532;28;20139;-68
2022/03/13 09:28:16;;;;;;;0.03;0.03;;;11.30;99.90;;;;;;5064454;28;20036;-67
2022/03/13 09:30:42;;;;;;;0.00;0.00;;;12.10;99.10;;;;;;5061329;28;20166;-65
2022/03/13 09:33:07;;;;;;;0.00;0.00;;;12.50;97.30;;;;;;5043757;28;20051;-67
2022/03/13 09:35:33;;;;;;;0.98;0.20;;;12.30;96.50;;;;;;5044202;28;20037;-67
2022/03/13 09:37:59;;;;;;;0.22;0.10;;;12.20;96.90;;;;;;5043853;28;20708;-67
2022/03/13 09:40:26;;;;;;;0.00;0.00;;;12.40;97.40;;;;;;5044034;28;20185;-67
2022/03/13 09:42:52;;;;;;;0.00;0.00;;;13.10;96.60;;;;;;5025803;28;20132;-66
2022/03/13 09:45:18;;;;;;;0.22;0.22;;;12.70;95.40;;;;;;5026005;28;20124;-66
2022/03/13 09:47:44;;;;;;;0.50;0.30;;;12.10;96.00;;;;;;5042001;28;20045;-67
2022/03/13 09:50:14;;;;;;;2.30;1.65;;;12.50;96.30;;;;;;5026330;28;20453;-66
2022/03/13 09:52:40;;;;;;;0.00;0.00;;;12.80;95.40;;;;;;5043147;28;20041;-65
2022/03/13 09:55:08;;;;;;;0.10;0.10;;;13.20;95.60;;;;;;5044312;28;20037;-66
2022/03/13 09:57:36;;;;;;;0.10;0.10;;;13.30;94.50;;;;;;5044191;28;20040;-66
2022/03/13 10:00:08;;;;;;;0.57;0.57;;;13.50;94.80;;;;;;5047149;28;20040;-66
2022/03/13 10:02:36;;;;;;;1.27;0.52;;;13.80;93.80;;;;;;5025857;28;20049;-66
2022/03/13 10:05:10;;;;;;;0.20;0.15;;;13.90;93.20;;;;;;5045099;28;20107;-67
2022/03/13 10:07:59;;;;;;;0.00;0.00;;;14.40;92.90;;;;;;5033592;28;20498;-66
2022/03/13 10:10:30;;;;;;;0.60;0.40;;;14.50;92.60;;;;;;5056707;28;20293;-64
2022/03/13 10:12:56;;;;;;;0.30;0.30;;;14.40;92.00;;;;;;5042515;28;20124;-66
2022/03/13 10:15:22;;;;;;;0.75;0.50;;;14.60;91.20;;;;;;5052839;28;20037;-66
2022/03/13 10:17:48;;;;;;;0.30;0.30;;;14.50;91.10;;;;;;5032448;28;20517;-66
2022/03/13 10:20:23;;;;;;;0.47;0.10;;;14.60;91.60;;;;;;5054330;28;20066;-66
2022/03/13 10:23:03;;;;;;;0.00;0.00;;;15.20;91.30;;;;;;5052675;28;20045;-66
2022/03/13 10:25:33;;;;;;;0.00;0.00;;;14.50;91.00;;;;;;5052691;28;20037;-66
2022/03/13 10:28:18;;;;;;;0.95;0.80;;;14.80;92.30;;;;;;5050678;28;20052;-67
2022/03/13 10:30:46;;;;;;;0.15;0.15;;;15.00;91.70;;;;;;5051679;28;20147;-66
2022/03/13 10:33:12;;;;;;;0.10;0.10;;;15.30;92.30;;;;;;5052124;28;20155;-68
2022/03/13 10:35:38;;;;;;;0.55;0.20;;;15.40;91.80;;;;;;5059671;28;20045;-67
2022/03/13 10:38:17;;;;;;;0.10;0.10;;;15.40;91.10;;;;;;5028136;28;20052;-59
2022/03/13 10:40:45;;;;;;;0.08;0.08;;;15.00;92.40;;;;;;5062136;28;20386;-65
2022/03/13 10:43:12;;;;;;;0.05;0.05;;;15.00;92.30;;;;;;5062591;28;20051;-67
2022/03/13 10:45:51;;;;;;;0.10;0.10;;;15.00;93.50;;;;;;5062252;28;20139;-67
2022/03/13 10:48:21;;;;;;;0.10;0.10;;;14.60;92.90;;;;;;5043616;28;20080;-66
2022/03/13 10:50:52;;;;;;;0.00;0.00;;;14.60;93.10;;;;;;5044506;28;20240;-67
2022/03/13 10:53:19;;;;;;;0.10;0.10;;;14.50;93.50;;;;;;5044952;28;20567;-65
2022/03/13 10:56:05;;;;;;;0.00;0.00;;;14.60;93.90;;;;;;5061759;28;20514;-66
2022/03/13 10:58:31;;;;;;;0.25;0.08;;;14.40;93.40;;;;;;5062798;28;20052;-66
2022/03/13 11:01:06;;;;;;;0.00;0.00;;;14.40;92.90;;;;;;5060276;28;20094;-66
2022/03/13 11:03:34;;;;;;;0.22;0.22;;;14.40;92.50;;;;;;5032012;28;20060;-66
2022/03/13 11:06:01;;;;;;;0.00;0.00;;;14.60;91.50;;;;;;5024736;28;20132;-66
2022/03/13 11:08:28;;;;;;;0.40;0.38;;;14.90;92.30;;;;;;5042483;28;20060;-66
2022/03/13 11:10:54;;;;;;;0.00;0.00;;;15.20;91.90;;;;;;5023557;28;20125;-66
2022/03/13 11:13:21;;;;;;;2.53;1.20;;;15.00;90.70;;;;;;5024419;28;20141;-66
2022/03/13 11:15:48;;;;;;;0.10;0.10;;;14.50;90.80;;;;;;5041879;28;20186;-66
2022/03/13 11:18:17;;;;;;;0.13;0.13;;;14.40;90.80;;;;;;5041212;28;20514;-66
2022/03/13 11:20:43;;;;;;;0.00;0.00;;;14.50;90.00;;;;;;5041695;28;20056;-66
2022/03/13 11:23:09;;;;;;;0.20;0.20;;;14.40;90.80;;;;;;5042362;28;20068;-67
2022/03/13 11:25:35;;;;;;;0.00;0.00;;;14.50;90.50;;;;;;5041821;28;20048;-66
2022/03/13 11:28:02;;;;;;;2.30;0.35;;;14.80;90.60;;;;;;5041824;28;20037;-66
2022/03/13 11:30:36;;;;;;;0.38;0.38;;;14.90;89.80;;;;;;5024773;28;20412;-67
2022/03/13 11:33:02;;;;;;;0.07;0.07;;;15.00;89.60;;;;;;5041811;28;20047;-67
2022/03/13 11:35:32;;;;;;;0.00;0.00;;;14.80;89.20;;;;;;5041967;28;20292;-67
2022/03/13 11:38:00;;;;;;;0.10;0.10;;;14.90;89.70;;;;;;5041509;28;20514;-66
2022/03/13 11:40:33;;;;;;;2.53;0.25;;;14.80;90.70;;;;;;5042276;28;20049;-66
2022/03/13 11:43:16;;;;;;;0.00;0.00;;;14.50;89.00;;;;;;5042037;28;20049;-67
2022/03/13 11:45:59;;;;;;;0.00;0.00;;;14.50;90.10;;;;;;5023933;28;20073;-66
2022/03/13 11:48:25;;;;;;;0.13;0.13;;;14.50;90.50;;;;;;5041743;28;20465;-66
2022/03/13 11:50:58;;;;;;;0.00;0.00;;;14.60;90.00;;;;;;5041851;28;20091;-66
2022/03/13 11:53:29;;;;;;;0.10;0.03;;;14.30;88.80;;;;;;5041607;28;20155;-67
2022/03/13 11:56:01;;;;;;;0.50;0.08;;;14.10;89.40;;;;;;5023334;28;20091;-66
2022/03/13 11:58:46;;;;;;;0.00;0.00;;;14.30;90.00;;;;;;5040097;28;20128;-67
2022/03/13 12:01:19;;;;;;;0.38;0.35;;;14.50;88.40;;;;;;5044547;28;20037;-65
2022/03/13 12:04:14;;;;;;;0.00;0.00;;;14.40;89.50;;;;;;5049556;28;20055;-66
2022/03/13 12:06:41;;;;;;;;;;;14.40;89.50;;;;;;5024866;28;20056;-65
2022/03/13 12:09:18;;;;;;;0.00;0.00;;;14.40;88.80;;;;;;5041787;28;19974;-66
2022/03/13 12:11:52;;;;;;;0.00;0.00;;;14.50;89.40;;;;;;5044050;28;20062;-65
2022/03/13 12:14:20;;;;;;;0.05;0.05;;;14.50;88.80;;;;;;5028357;28;20044;-66
2022/03/13 12:17:03;;;;;;;0.00;0.00;;;14.30;88.50;;;;;;5027240;28;20630;-66
2022/03/13 12:19:37;;;;;;;0.00;0.00;;;14.40;88.20;;;;;;5045000;28;20049;-69
2022/03/13 12:22:05;;;;;;;0.00;0.00;;;14.30;87.80;;;;;;5045452;28;20084;-67
2022/03/13 12:24:32;;;;;;;0.00;0.00;;;14.30;88.00;;;;;;5045739;28;20033;-68
2022/03/13 12:27:02;;;;;;;0.20;0.20;;;14.00;86.90;;;;;;5045092;28;20428;-67
2022/03/13 12:29:30;;;;;;;0.00;0.00;;;14.20;86.80;;;;;;5027928;28;20079;-67
2022/03/13 12:31:57;;;;;;;0.10;0.03;;;13.90;85.40;;;;;;5026846;28;20041;-67
2022/03/13 12:34:32;;;;;;;0.00;0.00;;;14.20;88.70;;;;;;5026733;28;20499;-67
2022/03/13 12:37:02;;;;;;;0.20;0.20;;;14.20;85.00;;;;;;5045004;28;20041;-67
2022/03/13 12:39:28;;;;;;;2.03;1.02;;;14.00;85.00;;;;;;5044977;28;20061;-67
2022/03/13 12:42:00;;;;;;;0.00;0.00;;;14.20;85.00;;;;;;5027302;28;20057;-66
2022/03/13 12:44:27;;;;;;;0.10;0.10;;;14.60;87.60;;;;;;5045429;28;20052;-66
2022/03/13 12:46:53;;;;;;;0.30;0.30;;;15.00;86.10;;;;;;5026689;28;20041;-66
2022/03/13 12:49:30;;;;;;;0.20;0.10;;;15.10;85.40;;;;;;5026635;28;20037;-66
2022/03/13 12:51:57;;;;;;;0.13;0.13;;;15.40;84.00;;;;;;5026461;28;20157;-66
2022/03/13 12:54:22;;;;;;;0.10;0.05;;;15.50;84.00;;;;;;5044579;28;20099;-71
2022/03/13 12:56:55;;;;;;;0.00;0.00;;;15.60;84.60;;;;;;5026303;28;20435;-71
2022/03/13 12:59:31;;;;;;;0.10;0.10;;;15.60;84.90;;;;;;5026984;28;20458;-68